createdAt,value
2023-01-23T00:00:43.557Z,504.00
2023-01-23T00:01:43.489Z,506.00
2023-01-23T00:02:43.503Z,507.00
2023-01-23T00:03:43.450Z,504.00
2023-01-23T00:04:43.314Z,504.00
2023-01-23T00:05:43.262Z,503.00
2023-01-23T00:06:43.299Z,504.00
2023-01-23T00:07:43.155Z,504.00
2023-01-23T00:08:43.093Z,501.00
2023-01-23T00:09:43.063Z,501.00
2023-01-23T00:10:42.973Z,502.00
2023-01-23T00:11:42.932Z,500.00
2023-01-23T00:12:42.861Z,498.00
2023-01-23T00:13:42.810Z,500.00
2023-01-23T00:14:42.742Z,500.00
2023-01-23T00:15:42.711Z,501.00
2023-01-23T00:16:42.635Z,500.00
2023-01-23T00:17:42.592Z,501.00
2023-01-23T00:18:42.519Z,500.00
2023-01-23T00:19:42.486Z,501.00
2023-01-23T00:20:42.412Z,500.00
2023-01-23T00:21:42.362Z,500.00
2023-01-23T00:22:42.392Z,501.00
2023-01-23T00:23:42.241Z,503.00
2023-01-23T00:24:42.215Z,505.00
2023-01-23T00:25:42.137Z,508.00
2023-01-23T00:26:42.082Z,507.00
2023-01-23T00:27:42.028Z,506.00
2023-01-23T00:28:41.962Z,505.00
2023-01-23T00:29:41.908Z,506.00
2023-01-23T00:30:41.859Z,505.00
2023-01-23T00:31:41.854Z,505.00
2023-01-23T00:32:41.716Z,505.00
2023-01-23T00:33:41.662Z,505.00
2023-01-23T00:34:41.596Z,505.00
2023-01-23T00:35:41.544Z,505.00
2023-01-23T00:36:41.484Z,504.00
2023-01-23T00:37:41.440Z,505.00
2023-01-23T00:38:41.461Z,504.00
2023-01-23T00:39:41.326Z,504.00
2023-01-23T00:40:41.273Z,506.00
2023-01-23T00:41:41.224Z,506.00
2023-01-23T00:42:41.151Z,506.00
2023-01-23T00:43:41.106Z,507.00
2023-01-23T00:44:41.055Z,508.00
2023-01-23T00:45:41.004Z,507.00
2023-01-23T00:46:40.954Z,507.00
2023-01-23T00:47:40.873Z,508.00
2023-01-23T00:48:40.818Z,507.00
2023-01-23T00:49:40.765Z,508.00
2023-01-23T00:50:40.730Z,508.00
2023-01-23T00:51:40.655Z,507.00
2023-01-23T00:52:40.602Z,508.00
2023-01-23T00:53:40.555Z,507.00
2023-01-23T00:54:40.583Z,510.00
2023-01-23T00:55:40.444Z,512.00
2023-01-23T00:56:40.387Z,515.00
2023-01-23T00:57:40.329Z,514.00
2023-01-23T00:58:40.274Z,512.00
2023-01-23T00:59:40.206Z,510.00
2023-01-23T01:00:40.183Z,509.00
2023-01-23T01:01:40.158Z,510.00
2023-01-23T01:02:40.106Z,510.00
2023-01-23T01:03:39.996Z,510.00
2023-01-23T01:04:39.946Z,506.00
2023-01-23T01:05:39.896Z,504.00
2023-01-23T01:06:39.848Z,504.00
2023-01-23T01:07:39.802Z,503.00
2023-01-23T01:08:39.742Z,503.00
2023-01-23T01:09:39.692Z,502.00
2023-01-23T01:10:39.722Z,502.00
2023-01-23T01:11:39.580Z,502.00
2023-01-23T01:12:39.540Z,504.00
2023-01-23T01:13:39.471Z,503.00
2023-01-23T01:14:39.420Z,505.00
2023-01-23T01:15:39.378Z,507.00
2023-01-23T01:16:39.315Z,508.00
2023-01-23T01:17:39.256Z,507.00
2023-01-23T01:18:39.209Z,505.00
2023-01-23T01:19:39.152Z,508.00
2023-01-23T01:20:39.097Z,505.00
2023-01-23T01:21:39.042Z,507.00
2023-01-23T01:22:38.993Z,507.00
2023-01-23T01:23:38.948Z,510.00
2023-01-23T01:24:38.881Z,508.00
2023-01-23T01:25:38.848Z,508.00
2023-01-23T01:26:38.867Z,507.00
2023-01-23T01:27:38.733Z,507.00
2023-01-23T01:28:38.677Z,508.00
2023-01-23T01:29:38.605Z,509.00
2023-01-23T01:30:38.590Z,507.00
2023-01-23T01:31:38.518Z,508.00
2023-01-23T01:32:38.444Z,508.00
2023-01-23T01:33:38.387Z,508.00
2023-01-23T01:34:38.332Z,505.00
2023-01-23T01:35:38.281Z,504.00
2023-01-23T01:36:38.246Z,505.00
2023-01-23T01:37:38.191Z,508.00
2023-01-23T01:38:38.142Z,509.00
2023-01-23T01:39:38.098Z,509.00
2023-01-23T01:40:38.043Z,507.00
2023-01-23T01:41:38.014Z,506.00
2023-01-23T01:42:38.034Z,506.00
2023-01-23T01:43:37.897Z,503.00
2023-01-23T01:44:37.847Z,502.00
2023-01-23T01:45:37.788Z,502.00
2023-01-23T01:46:37.837Z,502.00
2023-01-23T01:47:37.701Z,503.00
2023-01-23T01:48:37.654Z,502.00
2023-01-23T01:49:37.592Z,503.00
2023-01-23T01:50:37.553Z,502.00
2023-01-23T01:51:37.499Z,502.00
2023-01-23T01:52:37.455Z,502.00
2023-01-23T01:53:37.387Z,501.00
2023-01-23T01:54:37.339Z,499.00
2023-01-23T01:55:37.296Z,499.00
2023-01-23T01:56:37.252Z,499.00
2023-01-23T01:57:37.187Z,498.00
2023-01-23T01:58:37.218Z,500.00
2023-01-23T01:59:37.087Z,501.00
2023-01-23T02:00:37.134Z,501.00
2023-01-23T02:01:37.149Z,502.00
2023-01-23T02:02:36.946Z,502.00
2023-01-23T02:03:36.885Z,504.00
2023-01-23T02:04:36.842Z,502.00
2023-01-23T02:05:36.793Z,499.00
2023-01-23T02:06:36.749Z,500.00
2023-01-23T02:07:36.707Z,498.00
2023-01-23T02:08:36.655Z,497.00
2023-01-23T02:11:36.508Z,502.00
2023-01-23T02:12:36.462Z,500.00
2023-01-23T02:13:36.420Z,503.00
2023-01-23T02:14:36.453Z,501.00
2023-01-23T02:15:36.321Z,497.00
2023-01-23T02:16:36.400Z,498.00
2023-01-23T02:17:36.225Z,498.00
2023-01-23T02:18:36.171Z,500.00
2023-01-23T02:19:36.125Z,500.00
2023-01-23T02:20:36.954Z,500.00
2023-01-23T02:21:36.005Z,500.00
2023-01-23T02:22:35.984Z,499.00
2023-01-23T02:23:35.912Z,499.00
2023-01-23T02:24:35.856Z,498.00
2023-01-23T02:25:35.814Z,496.00
2023-01-23T02:26:35.744Z,498.00
2023-01-23T02:27:35.701Z,498.00
2023-01-23T02:28:35.655Z,497.00
2023-01-23T02:29:36.455Z,496.00
2023-01-23T02:30:35.638Z,498.00
2023-01-23T02:31:35.589Z,497.00
2023-01-23T02:45:34.226Z,499.00
2023-01-23T02:46:34.211Z,503.00
2023-01-23T02:47:34.074Z,503.00
2023-01-23T02:48:34.012Z,503.00
2023-01-23T02:49:33.962Z,502.00
2023-01-23T02:50:33.913Z,501.00
2023-01-23T02:51:33.860Z,502.00
2023-01-23T02:52:33.820Z,503.00
2023-01-23T02:53:33.754Z,501.00
2023-01-23T02:54:33.717Z,500.00
2023-01-23T02:55:33.669Z,498.00
2023-01-23T02:56:33.603Z,499.00
2023-01-23T02:57:33.560Z,500.00
2023-01-23T02:58:33.509Z,500.00
2023-01-23T02:59:33.464Z,501.00
2023-01-23T03:00:33.412Z,502.00
2023-01-23T03:01:33.369Z,500.00
2023-01-23T03:02:33.448Z,502.00
2023-01-23T03:03:33.277Z,502.00
2023-01-23T03:04:33.228Z,500.00
2023-01-23T03:05:33.186Z,498.00
2023-01-23T03:06:33.139Z,500.00
2023-01-23T03:07:33.100Z,503.00
2023-01-23T03:08:33.034Z,500.00
2023-01-23T03:09:32.983Z,498.00
2023-01-23T03:10:32.929Z,499.00
2023-01-23T03:11:32.892Z,498.00
2023-01-23T03:12:32.841Z,497.00
2023-01-23T03:13:32.833Z,498.00
2023-01-23T03:15:32.693Z,496.00
2023-01-23T03:16:32.751Z,494.00
2023-01-23T03:17:32.591Z,494.00
2023-01-23T03:18:34.607Z,493.00
2023-01-23T03:19:32.434Z,494.00
2023-01-23T03:20:32.323Z,494.00
2023-01-23T03:21:32.219Z,495.00
2023-01-23T03:22:32.100Z,495.00
2023-01-23T03:23:31.986Z,497.00
2023-01-23T03:25:31.743Z,495.00
2023-01-23T03:26:31.641Z,498.00
2023-01-23T04:02:27.935Z,495.00
2023-01-23T04:03:27.800Z,493.00
2023-01-23T04:04:27.713Z,493.00
2023-01-23T04:05:27.643Z,496.00
2023-01-23T04:06:27.649Z,496.00
2023-01-23T04:07:27.472Z,497.00
2023-01-23T04:08:27.404Z,497.00
2023-01-23T04:09:27.319Z,498.00
2023-01-23T04:10:27.266Z,497.00
2023-01-23T04:11:27.186Z,495.00
2023-01-23T04:12:27.109Z,496.00
2023-01-23T04:13:27.032Z,497.00
2023-01-23T04:14:26.963Z,494.00
2023-01-23T04:15:26.867Z,496.00
2023-01-23T04:16:26.820Z,494.00
2023-01-23T04:17:26.716Z,495.00
2023-01-23T04:18:26.616Z,495.00
2023-01-23T04:19:26.595Z,495.00
2023-01-23T04:20:26.461Z,497.00
2023-01-23T04:21:26.368Z,497.00
2023-01-23T04:22:26.377Z,497.00
2023-01-23T04:23:26.217Z,498.00
2023-01-23T04:24:26.136Z,497.00
2023-01-23T04:25:26.052Z,499.00
2023-01-23T04:26:25.963Z,499.00
2023-01-23T04:27:25.897Z,498.00
2023-01-23T04:28:25.789Z,500.00
2023-01-23T04:29:25.709Z,501.00
2023-01-23T04:30:25.711Z,502.00
2023-01-23T04:31:25.649Z,499.00
2023-01-23T05:24:20.435Z,501.00
2023-01-23T05:28:20.113Z,501.00
2023-01-23T05:29:20.023Z,502.00
2023-01-23T05:30:20.303Z,501.00
2023-01-23T05:31:19.938Z,500.00
2023-01-23T05:32:19.789Z,501.00
2023-01-23T05:33:19.704Z,498.00
2023-01-23T05:34:19.627Z,496.00
2023-01-23T05:35:19.567Z,495.00
2023-01-23T05:36:19.517Z,494.00
2023-01-23T05:37:19.381Z,494.00
2023-01-23T05:38:19.303Z,492.00
2023-01-23T05:39:19.227Z,493.00
2023-01-23T05:40:19.413Z,491.00
2023-01-23T05:41:19.110Z,490.00
2023-01-23T05:42:19.086Z,494.00
2023-01-23T05:43:18.910Z,492.00
2023-01-23T05:44:18.839Z,494.00
2023-01-23T05:45:18.765Z,492.00
2023-01-23T05:46:18.737Z,492.00
2023-01-23T05:47:18.604Z,492.00
2023-01-23T05:48:18.560Z,494.00
2023-01-23T05:49:18.442Z,493.00
2023-01-23T05:50:18.689Z,494.00
2023-01-23T05:51:18.312Z,494.00
2023-01-23T05:52:18.207Z,494.00
2023-01-23T05:53:18.117Z,494.00
2023-01-23T05:54:18.054Z,495.00
2023-01-23T05:55:17.964Z,496.00
2023-01-23T05:56:17.879Z,497.00
2023-01-23T05:57:17.806Z,497.00
2023-01-23T05:58:17.799Z,497.00
2023-01-23T05:59:17.649Z,496.00
2023-01-23T06:00:17.767Z,495.00
2023-01-23T06:01:17.479Z,498.00
2023-01-23T06:08:16.943Z,501.00
2023-01-23T06:09:16.871Z,500.00
2023-01-23T06:10:16.778Z,499.00
2023-01-23T06:11:16.714Z,499.00
2023-01-23T06:12:16.619Z,496.00
2023-01-23T06:13:16.551Z,493.00
2023-01-23T06:14:16.556Z,493.00
2023-01-23T06:15:16.390Z,492.00
2023-01-23T06:16:19.102Z,489.00
2023-01-23T06:17:16.189Z,491.00
2023-01-23T06:18:16.093Z,496.00
2023-01-23T06:19:15.966Z,500.00
2023-01-23T06:20:15.842Z,506.00
2023-01-23T06:21:15.732Z,512.00
2023-01-23T06:22:15.624Z,519.00
2023-01-23T06:23:15.524Z,582.00
2023-01-23T07:19:08.075Z,2490.00
2023-01-23T07:20:07.949Z,2522.00
2023-01-23T07:21:07.792Z,2542.00
2023-01-23T07:22:07.646Z,2581.00
2023-01-23T07:23:07.512Z,2607.00
2023-01-23T07:24:07.378Z,1855.00
2023-01-23T07:25:07.234Z,1681.00
2023-01-23T07:26:07.109Z,1517.00
2023-01-23T07:27:06.991Z,1485.00
2023-01-23T07:28:06.836Z,1456.00
2023-01-23T07:29:06.725Z,1489.00
2023-01-23T07:30:06.591Z,1473.00
2023-01-23T07:31:06.616Z,1559.00
2023-01-23T07:32:06.350Z,1657.00
2023-01-23T07:33:06.243Z,1686.00
2023-01-23T07:34:06.195Z,1694.00
2023-01-23T07:36:05.853Z,1762.00
2023-01-23T07:37:05.739Z,1778.00
2023-01-23T07:38:05.585Z,1787.00
2023-01-23T08:38:59.926Z,1732.00
2023-01-23T08:41:59.700Z,1713.00
2023-01-23T08:43:00.521Z,1705.00
2023-01-23T08:43:59.557Z,1701.00
2023-01-23T08:44:59.479Z,1697.00
2023-01-23T08:45:59.493Z,1698.00
2023-01-23T08:46:59.335Z,1692.00
2023-01-23T08:47:59.276Z,1686.00
2023-01-23T08:48:59.191Z,1684.00
2023-01-23T08:49:59.121Z,1678.00
2023-01-23T08:50:59.090Z,1673.00
2023-01-23T08:51:58.988Z,1668.00
2023-01-23T08:52:58.934Z,1663.00
2023-01-23T08:53:58.962Z,1659.00
2023-01-23T08:54:58.793Z,1657.00
2023-01-23T08:55:58.742Z,1650.00
2023-01-23T08:56:58.683Z,1646.00
2023-01-23T08:57:58.608Z,1646.00
2023-01-23T08:58:58.542Z,1640.00
2023-01-23T08:59:58.460Z,1639.00
2023-01-23T09:00:58.382Z,1634.00
2023-01-23T09:01:58.327Z,1630.00
2023-01-23T09:02:58.226Z,1625.00
2023-01-23T09:03:58.155Z,1618.00
2023-01-23T09:04:58.088Z,1611.00
2023-01-23T09:05:58.046Z,1604.00
2023-01-23T09:06:57.960Z,1604.00
2023-01-23T09:08:58.003Z,1594.00
2023-01-23T09:09:57.997Z,1592.00
2023-01-23T09:10:57.827Z,1591.00
2023-01-23T09:11:57.732Z,1586.00
2023-01-23T09:12:57.639Z,1587.00
2023-01-23T09:13:58.167Z,1623.00
2023-01-23T09:14:57.494Z,1667.00
2023-01-23T09:15:57.410Z,1446.00
2023-01-23T09:16:57.307Z,1414.00
2023-01-23T09:17:57.185Z,1381.00
2023-01-23T09:18:57.091Z,1373.00
2023-01-23T09:24:56.711Z,1239.00
2023-01-23T09:25:56.731Z,1267.00
2023-01-23T09:26:56.606Z,957.00
2023-01-23T09:27:56.497Z,890.00
2023-01-23T09:28:56.473Z,865.00
2023-01-23T09:29:56.392Z,900.00
2023-01-23T09:30:56.423Z,968.00
2023-01-23T09:31:57.366Z,1006.00
2023-01-23T09:32:56.234Z,1065.00
2023-01-23T09:33:56.146Z,1096.00
2023-01-23T09:34:56.055Z,1126.00
2023-01-23T09:35:55.952Z,1215.00
2023-01-23T09:36:55.849Z,1291.00
2023-01-23T09:37:58.989Z,1323.00
2023-01-23T09:38:55.668Z,1361.00
2023-01-23T09:39:55.537Z,1409.00
2023-01-23T10:19:51.053Z,2599.00
2023-01-23T10:21:50.553Z,2576.00
2023-01-23T10:22:49.851Z,2677.00
2023-01-23T10:23:49.777Z,2723.00
2023-01-23T10:24:49.583Z,2782.00
2023-01-23T10:25:49.451Z,2783.00
2023-01-23T10:26:49.327Z,2792.00
2023-01-23T10:27:49.177Z,2811.00
2023-01-23T10:28:49.631Z,2837.00
2023-01-23T10:30:48.941Z,2898.00
2023-01-23T10:31:48.750Z,2956.00
2023-01-23T10:32:48.606Z,2982.00
2023-01-23T10:33:48.484Z,3021.00
2023-01-23T10:34:48.382Z,3095.00
2023-01-23T10:35:48.273Z,3145.00
2023-01-23T10:37:48.993Z,3109.00
2023-01-23T10:38:47.853Z,3122.00
2023-01-23T10:39:48.153Z,3133.00
2023-01-23T10:40:47.551Z,3199.00
2023-01-23T10:41:51.131Z,3212.00
2023-01-23T10:42:47.276Z,3205.00
2023-01-23T10:43:47.136Z,3206.00
2023-01-23T10:44:46.998Z,3250.00
2023-01-23T10:45:46.983Z,3269.00
2023-01-23T10:46:46.695Z,3261.00
2023-01-23T10:47:52.037Z,3286.00
2023-01-23T10:48:47.459Z,3308.00
2023-01-23T10:49:46.347Z,3323.00
2023-01-23T10:50:46.231Z,3348.00
2023-01-23T10:51:46.101Z,3376.00
2023-01-23T10:52:46.003Z,3465.00
2023-01-23T10:53:45.877Z,3468.00
2023-01-23T10:54:45.743Z,3487.00
2023-01-23T10:55:45.679Z,3491.00
2023-01-23T10:56:45.541Z,3510.00
2023-01-23T11:56:38.729Z,2530.00
2023-01-23T11:57:38.647Z,2537.00
2023-01-23T11:58:49.026Z,2534.00
2023-01-23T11:59:39.367Z,2642.00
2023-01-23T12:00:38.230Z,2627.00
2023-01-23T12:01:38.090Z,2694.00
2023-01-23T12:02:38.486Z,2712.00
2023-01-23T12:03:37.861Z,2736.00
2023-01-23T12:04:37.677Z,2757.00
2023-01-23T12:05:37.612Z,2735.00
2023-01-23T12:06:37.366Z,2635.00
2023-01-23T12:07:37.227Z,2619.00
2023-01-23T12:08:37.092Z,2612.00
2023-01-23T12:09:36.955Z,2609.00
2023-01-23T12:10:36.829Z,2610.00
2023-01-23T12:11:36.689Z,2606.00
2023-01-23T12:12:36.544Z,2604.00
2023-01-23T12:13:36.404Z,2598.00
2023-01-23T12:14:36.253Z,2599.00
2023-01-23T12:15:36.129Z,2595.00
2023-01-23T12:16:35.996Z,2586.00
2023-01-23T12:17:35.839Z,2584.00
2023-01-23T12:18:37.172Z,2580.00
2023-01-23T12:19:35.580Z,2573.00
2023-01-23T12:31:34.058Z,2523.00
2023-01-23T12:32:33.831Z,2523.00
2023-01-23T12:33:33.690Z,2515.00
2023-01-23T12:34:33.551Z,2517.00
2023-01-23T12:35:33.414Z,2514.00
2023-01-23T12:36:35.327Z,2509.00
2023-01-23T12:37:33.275Z,2498.00
2023-01-23T12:38:33.009Z,2492.00
2023-01-23T12:39:32.875Z,2490.00
2023-01-23T12:40:32.752Z,2460.00
2023-01-23T12:41:32.648Z,2444.00
2023-01-23T12:42:32.498Z,2338.00
2023-01-23T12:43:32.353Z,2090.00
2023-01-23T12:44:32.218Z,2097.00
2023-01-23T12:45:32.097Z,2128.00
2023-01-23T12:46:31.985Z,1897.00
2023-01-23T12:47:31.819Z,1932.00
2023-01-23T12:48:31.689Z,1768.00
2023-01-23T12:49:31.556Z,1765.00
2023-01-23T12:50:31.431Z,1841.00
2023-01-23T12:51:31.305Z,1833.00
2023-01-23T12:52:31.161Z,1812.00
2023-01-23T12:53:31.038Z,1797.00
2023-01-23T12:54:30.903Z,1749.00
2023-01-23T12:55:30.765Z,1730.00
2023-01-23T12:56:30.643Z,1715.00
2023-01-23T12:57:40.285Z,1705.00
2023-01-23T12:58:31.374Z,1701.00
2023-01-23T12:59:30.240Z,1690.00
2023-01-23T13:00:30.181Z,1678.00
2023-01-23T13:01:29.992Z,1665.00
2023-01-23T13:19:28.509Z,1591.00
2023-01-23T13:20:28.447Z,1588.00
2023-01-23T13:21:28.401Z,1583.00
2023-01-23T13:22:32.154Z,1583.00
2023-01-23T13:23:28.213Z,1580.00
2023-01-23T13:24:28.093Z,1576.00
2023-01-23T13:25:28.049Z,1576.00
2023-01-23T13:26:27.851Z,1575.00
2023-01-23T13:27:27.711Z,1573.00
2023-01-23T13:28:29.737Z,1573.00
2023-01-23T13:29:28.462Z,1573.00
2023-01-23T13:30:27.345Z,1569.00
2023-01-23T13:31:27.295Z,1567.00
2023-01-23T13:32:27.171Z,1565.00
2023-01-23T13:33:26.967Z,1563.00
2023-01-23T13:34:26.836Z,1562.00
2023-01-23T13:35:26.708Z,1561.00
2023-01-23T13:36:26.583Z,1557.00
2023-01-23T13:37:26.516Z,1553.00
2023-01-23T13:42:26.225Z,1545.00
2023-01-23T13:43:26.172Z,1540.00
2023-01-23T13:44:35.881Z,1541.00
2023-01-23T13:45:27.279Z,1542.00
2023-01-23T13:46:25.872Z,1539.00
2023-01-23T13:47:25.747Z,1534.00
2023-01-23T13:48:25.631Z,1535.00
2023-01-23T13:49:25.505Z,1535.00
2023-01-23T15:50:17.930Z,1371.00
2023-01-23T15:55:17.351Z,1366.00
2023-01-23T15:56:17.212Z,1367.00
2023-01-23T15:57:17.111Z,1370.00
2023-01-23T15:58:16.994Z,1366.00
2023-01-23T15:59:16.880Z,1364.00
2023-01-23T16:00:16.767Z,1362.00
2023-01-23T16:01:16.697Z,1359.00
2023-01-23T16:02:29.729Z,1359.00
2023-01-23T16:03:17.425Z,1359.00
2023-01-23T16:04:16.271Z,1358.00
2023-01-23T16:05:16.208Z,1353.00
2023-01-23T16:06:16.001Z,1353.00
2023-01-23T16:07:15.861Z,1352.00
2023-01-23T16:08:15.756Z,1353.00
2023-01-23T16:09:15.613Z,1351.00
2023-01-23T17:12:07.812Z,1292.00
2023-01-23T17:13:07.695Z,1293.00
2023-01-23T17:14:07.565Z,1293.00
2023-01-23T17:15:07.470Z,1297.00
2023-01-23T17:16:18.651Z,1292.00
2023-01-23T17:17:08.333Z,1294.00
2023-01-23T17:18:07.081Z,1291.00
2023-01-23T17:19:06.943Z,1290.00
2023-01-23T17:20:06.818Z,1289.00
2023-01-23T17:21:06.690Z,1288.00
2023-01-23T17:22:06.554Z,1285.00
2023-01-23T17:23:06.430Z,1286.00
2023-01-23T17:24:06.342Z,1288.00
2023-01-23T17:25:06.267Z,1288.00
2023-01-23T17:26:06.029Z,1291.00
2023-01-23T17:27:05.947Z,1289.00
2023-01-23T17:28:12.823Z,1286.00
2023-01-23T17:29:06.680Z,1283.00
2023-01-23T17:30:05.543Z,1279.00
2023-01-23T18:12:00.437Z,1235.00
2023-01-23T18:13:00.406Z,1234.00
2023-01-23T18:14:00.200Z,1232.00
2023-01-23T18:15:00.107Z,1231.00
2023-01-23T18:15:59.971Z,1232.00
2023-01-23T18:16:59.850Z,1230.00
2023-01-23T18:17:59.752Z,1225.00
2023-01-23T18:18:59.630Z,1225.00
2023-01-23T18:19:59.527Z,1225.00
2023-01-23T18:20:59.402Z,1225.00
2023-01-23T18:21:59.294Z,1225.00
2023-01-23T18:22:59.188Z,1227.00
2023-01-23T18:23:59.148Z,1226.00
2023-01-23T18:24:58.979Z,1223.00
2023-01-23T18:25:58.846Z,1222.00
2023-01-23T18:26:58.740Z,1224.00
2023-01-23T18:27:58.626Z,1223.00
2023-01-23T18:28:58.622Z,1223.00
2023-01-23T18:29:58.410Z,1223.00
2023-01-23T18:30:58.351Z,1222.00
2023-01-23T18:31:58.212Z,1221.00
2023-01-23T18:32:58.082Z,1220.00
2023-01-23T18:33:57.994Z,1220.00
2023-01-23T18:34:57.860Z,1218.00
2023-01-23T18:35:57.747Z,1219.00
2023-01-23T18:36:57.648Z,1221.00
2023-01-23T18:37:57.526Z,1216.00
2023-01-23T18:38:57.411Z,1217.00
2023-01-23T18:39:57.311Z,1218.00
2023-01-23T18:40:57.192Z,1215.00
2023-01-23T18:41:57.081Z,1217.00
2023-01-23T18:42:56.974Z,1214.00
2023-01-23T18:43:56.878Z,1211.00
2023-01-23T18:44:56.838Z,1211.00
2023-01-23T18:45:56.767Z,1209.00
2023-01-23T18:46:56.526Z,1207.00
2023-01-23T18:47:56.416Z,1205.00
2023-01-23T18:48:56.301Z,1200.00
2023-01-23T18:49:56.218Z,1198.00
2023-01-23T18:50:56.087Z,1195.00
2023-01-23T18:51:56.005Z,1198.00
2023-01-23T18:52:55.853Z,1199.00
2023-01-23T18:53:55.757Z,1198.00
2023-01-23T18:54:55.656Z,1195.00
2023-01-23T18:55:55.524Z,1194.00
2023-01-23T19:22:52.689Z,1166.00
2023-01-23T19:23:52.600Z,1164.00
2023-01-23T19:24:53.262Z,1164.00
2023-01-23T19:25:52.381Z,1165.00
2023-01-23T19:26:52.251Z,1165.00
2023-01-23T19:27:52.172Z,1166.00
2023-01-23T19:29:51.983Z,1162.00
2023-01-23T19:30:51.894Z,1162.00
2023-01-23T19:32:03.984Z,1161.00
2023-01-23T19:32:52.719Z,1164.00
2023-01-23T19:33:51.526Z,1163.00
2023-01-23T19:34:51.385Z,1161.00
2023-01-23T19:35:51.268Z,1158.00
2023-01-23T19:36:51.117Z,1158.00
2023-01-23T19:37:50.988Z,1158.00
2023-01-23T19:38:50.868Z,1160.00
2023-01-23T19:39:50.741Z,1158.00
2023-01-23T19:40:50.616Z,1158.00
2023-01-23T19:41:50.489Z,1159.00
2023-01-23T19:42:58.725Z,1156.00
2023-01-23T19:43:51.255Z,1156.00
2023-01-23T19:44:50.103Z,1156.00
2023-01-23T19:45:49.986Z,1153.00
2023-01-23T19:46:49.915Z,1148.00
2023-01-23T19:47:49.738Z,1145.00
2023-01-23T19:48:49.684Z,1144.00
2023-01-23T19:49:49.491Z,1140.00
2023-01-23T19:50:49.359Z,1137.00
2023-01-23T19:51:49.241Z,1141.00
2023-01-23T19:52:49.150Z,1141.00
2023-01-23T19:53:49.011Z,1142.00
2023-01-23T19:54:48.874Z,1142.00
2023-01-23T19:55:48.785Z,1139.00
2023-01-23T19:56:48.620Z,1138.00
2023-01-23T19:57:48.510Z,1140.00
2023-01-23T19:58:48.396Z,1140.00
2023-01-23T19:59:48.255Z,1144.00
2023-01-23T20:00:48.173Z,1143.00
2023-01-23T20:01:48.046Z,1143.00
2023-01-23T20:02:47.898Z,1142.00
2023-01-23T20:03:47.759Z,1139.00
2023-01-23T20:04:47.735Z,1139.00
2023-01-23T20:05:47.528Z,1138.00
2023-01-23T20:06:47.401Z,1138.00
2023-01-23T20:07:47.300Z,1133.00
2023-01-23T20:08:47.162Z,1133.00
2023-01-23T20:09:47.035Z,1134.00
2023-01-23T20:10:46.924Z,1134.00
2023-01-23T20:11:46.801Z,1134.00
2023-01-23T20:12:46.667Z,1137.00
2023-01-23T20:13:46.559Z,1134.00
2023-01-23T20:14:46.433Z,1136.00
2023-01-23T20:15:46.341Z,1136.00
2023-01-23T20:16:46.307Z,1135.00
2023-01-23T20:17:46.129Z,1136.00
2023-01-23T20:18:46.025Z,1136.00
2023-01-23T20:19:45.917Z,1136.00
2023-01-23T20:20:45.910Z,1135.00
2023-01-23T20:21:47.766Z,1133.00
2023-01-23T20:22:45.571Z,1134.00
2023-01-23T20:23:45.499Z,1133.00
2023-01-23T20:24:45.318Z,1132.00
2023-01-23T20:25:45.239Z,1130.00
2023-01-23T20:26:45.062Z,1131.00
2023-01-23T20:27:44.935Z,1130.00
2023-01-23T20:28:44.809Z,1125.00
2023-01-23T20:29:44.685Z,1127.00
2023-01-23T20:30:44.582Z,1127.00
2023-01-23T20:31:44.477Z,1127.00
2023-01-23T20:32:44.309Z,1129.00
2023-01-23T20:33:44.173Z,1128.00
2023-01-23T20:34:44.055Z,1126.00
2023-01-23T20:35:43.933Z,1127.00
2023-01-23T20:36:43.809Z,1123.00
2023-01-23T20:37:43.689Z,1121.00
2023-01-23T20:38:43.549Z,1121.00
2023-01-23T20:39:43.442Z,1117.00
2023-01-23T20:40:43.302Z,1117.00
2023-01-23T20:41:43.193Z,1114.00
2023-01-23T20:42:43.070Z,1115.00
2023-01-23T20:43:42.943Z,1116.00
2023-01-23T20:44:42.955Z,1119.00
2023-01-23T20:45:42.719Z,1123.00
2023-01-23T20:46:42.559Z,1121.00
2023-01-23T20:47:42.433Z,1118.00
2023-01-23T20:48:42.329Z,1115.00
2023-01-23T20:49:42.220Z,1114.00
2023-01-23T20:50:42.097Z,1109.00
2023-01-23T20:51:41.999Z,1110.00
2023-01-23T20:52:41.956Z,1107.00
2023-01-23T20:53:41.770Z,1108.00
2023-01-23T20:54:41.646Z,1108.00
2023-01-23T20:55:41.516Z,1104.00
2023-01-23T20:56:41.410Z,1103.00
2023-01-23T20:57:41.258Z,1102.00
2023-01-23T20:58:41.143Z,1101.00
2023-01-23T20:59:41.015Z,1102.00
2023-01-23T21:00:40.890Z,1100.00
2023-01-23T21:01:40.809Z,1099.00
2023-01-23T21:02:40.680Z,1098.00
2023-01-23T21:03:40.532Z,1097.00
2023-01-23T21:04:40.419Z,1096.00
2023-01-23T21:05:40.297Z,1095.00
2023-01-23T21:06:40.141Z,1094.00
2023-01-23T21:07:40.026Z,1094.00
2023-01-23T21:08:39.980Z,1093.00
2023-01-23T21:09:39.788Z,1092.00
2023-01-23T21:10:39.653Z,1090.00
2023-01-23T21:11:39.522Z,1088.00
2023-01-23T21:12:39.397Z,1089.00
2023-01-23T21:13:39.276Z,1089.00
2023-01-23T21:15:39.039Z,1092.00
2023-01-23T21:16:38.896Z,1091.00
2023-01-23T21:17:38.767Z,1090.00
2023-01-23T21:19:38.527Z,1089.00
2023-01-23T21:20:40.019Z,1085.00
2023-01-23T21:39:36.016Z,1078.00
2023-01-23T21:40:35.993Z,1078.00
2023-01-23T21:41:35.771Z,1076.00
2023-01-23T21:42:35.645Z,1073.00
2023-01-23T21:43:35.518Z,1073.00
2023-01-23T23:20:25.966Z,1011.00
2023-01-23T23:21:25.877Z,1011.00
2023-01-23T23:24:25.667Z,1008.00
